Time;durP1;ratioP1;P1;durP2;ratioP2;P2;SDS_P1;SDS_P2;PMS_P1;PMS_P2;Temp;Humidity;BMP_temperature;BMP_pressure;BME280_temperature;BME280_humidity;BME280_pressure;Samples;Min_cycle;Max_cycle;Signal;HPM_P1;HPM_P2
2023/11/02 00:00:09;;;;;;;0.00;0.00;;;21.90;53.60;;;;;;5014529;28;20212;-57
2023/11/02 00:02:40;;;;;;;0.00;0.00;;;21.90;53.60;;;;;;5012759;28;20672;-58
2023/11/02 00:05:42;;;;;;;0.00;0.00;;;22.00;53.60;;;;;;5013298;28;20201;-58
2023/11/02 00:08:15;;;;;;;0.10;0.10;;;22.00;53.60;;;;;;5013031;28;20194;-58
2023/11/02 00:10:45;;;;;;;0.08;0.08;;;22.00;53.50;;;;;;5014061;28;20239;-58
2023/11/02 00:13:22;;;;;;;0.10;0.10;;;22.10;53.60;;;;;;5014673;28;20192;-58
2023/11/02 00:15:53;;;;;;;0.10;0.10;;;22.10;53.60;;;;;;5013481;28;20331;-58
2023/11/02 00:18:23;;;;;;;0.00;0.00;;;22.10;53.50;;;;;;5014475;28;20194;-57
2023/11/02 00:20:58;;;;;;;0.10;0.10;;;22.10;53.50;;;;;;5013939;28;20196;-58
2023/11/02 00:23:39;;;;;;;0.00;0.00;;;22.20;53.50;;;;;;5007565;28;20648;-58
2023/11/02 00:26:09;;;;;;;0.10;0.10;;;22.20;53.50;;;;;;5014172;28;20235;-56
2023/11/02 00:31:08;;;;;;;0.10;0.10;;;22.30;53.50;;;;;;5012572;28;20220;-47
2023/11/02 00:33:39;;;;;;;0.05;0.05;;;22.30;53.50;;;;;;5006459;28;20197;-46
2023/11/02 00:36:12;;;;;;;0.10;0.10;;;22.30;53.50;;;;;;4993976;28;20212;-47
2023/11/02 00:38:46;;;;;;;0.00;0.00;;;22.30;53.50;;;;;;4994324;28;20190;-48
2023/11/02 00:41:17;;;;;;;0.05;0.05;;;22.40;53.50;;;;;;4994091;28;20248;-47
2023/11/02 00:43:48;;;;;;;0.00;0.00;;;22.40;53.50;;;;;;4994150;28;20189;-48
2023/11/02 00:46:18;;;;;;;0.10;0.10;;;22.40;53.50;;;;;;4994107;28;20197;-49
2023/11/02 00:48:49;;;;;;;0.10;0.10;;;22.50;53.50;;;;;;4994025;28;20241;-47
2023/11/02 00:51:20;;;;;;;0.10;0.10;;;22.50;53.50;;;;;;5015830;28;20196;-47
2023/11/02 00:53:56;;;;;;;0.10;0.10;;;22.50;53.40;;;;;;5017587;28;20193;-52
2023/11/02 00:56:29;;;;;;;0.10;0.10;;;22.50;53.40;;;;;;4994751;28;20205;-51
2023/11/02 00:59:00;;;;;;;0.10;0.10;;;22.50;53.40;;;;;;4993689;28;20213;-49
2023/11/02 01:01:31;;;;;;;0.10;0.10;;;22.60;53.40;;;;;;5000607;28;20284;-47
2023/11/02 01:04:30;;;;;;;0.00;0.00;;;22.60;53.40;;;;;;5004143;28;20279;-47
2023/11/02 01:07:01;;;;;;;0.08;0.08;;;22.60;53.30;;;;;;4994199;28;20202;-47
2023/11/02 01:09:53;;;;;;;0.03;0.03;;;22.60;53.30;;;;;;5000631;28;20312;-52
2023/11/02 01:12:31;;;;;;;0.10;0.10;;;22.70;53.30;;;;;;4993469;28;20271;-50
2023/11/02 01:15:03;;;;;;;0.10;0.10;;;22.70;53.20;;;;;;4994251;28;20240;-48
2023/11/02 01:17:34;;;;;;;0.10;0.10;;;22.70;53.20;;;;;;4993260;28;20197;-49
2023/11/02 01:20:09;;;;;;;0.10;0.10;;;22.80;53.30;;;;;;4996897;28;20298;-50
2023/11/02 01:22:54;;;;;;;0.10;0.10;;;22.80;53.30;;;;;;5010087;28;20196;-49
2023/11/02 01:25:30;;;;;;;0.00;0.00;;;22.80;53.30;;;;;;5013750;28;20207;-48
2023/11/02 01:28:06;;;;;;;0.00;0.00;;;22.80;53.30;;;;;;5013272;28;20203;-51
2023/11/02 01:31:11;;;;;;;0.10;0.10;;;22.90;53.30;;;;;;5033053;22;20290;-59
2023/11/02 01:34:03;;;;;;;0.00;0.00;;;22.90;53.90;;;;;;4996959;28;20197;-58
2023/11/02 01:36:35;;;;;;;0.00;0.00;;;22.90;53.20;;;;;;5013516;28;20243;-58
2023/11/02 01:39:30;;;;;;;0.00;0.00;;;22.90;53.30;;;;;;5013329;28;20229;-58
2023/11/02 01:42:11;;;;;;;0.00;0.00;;;22.90;53.30;;;;;;5012944;28;20197;-59
2023/11/02 01:44:48;;;;;;;0.10;0.10;;;23.00;53.30;;;;;;5012765;28;20280;-58
2023/11/02 01:47:34;;;;;;;0.00;0.00;;;23.00;53.30;;;;;;5012615;28;20193;-59
2023/11/02 01:50:12;;;;;;;0.08;0.08;;;23.00;53.30;;;;;;5012918;28;20228;-59
2023/11/02 01:53:07;;;;;;;0.10;0.10;;;23.00;53.30;;;;;;5013293;28;20246;-58
2023/11/02 01:56:04;;;;;;;0.10;0.10;;;23.00;53.20;;;;;;5013422;28;20201;-57
2023/11/02 01:58:48;;;;;;;0.10;0.10;;;23.10;53.20;;;;;;4997831;28;20234;-59
2023/11/02 02:01:26;;;;;;;0.10;0.10;;;23.10;53.10;;;;;;5007640;28;20206;-53
2023/11/02 02:04:07;;;;;;;0.10;0.10;;;23.10;53.10;;;;;;4990816;28;20193;-58
2023/11/02 02:06:52;;;;;;;0.00;0.00;;;23.10;53.00;;;;;;4975474;28;20194;-58
2023/11/02 02:09:43;;;;;;;0.00;0.00;;;23.10;53.00;;;;;;4973886;28;20253;-58
2023/11/02 02:12:21;;;;;;;0.00;0.00;;;23.20;53.00;;;;;;4973916;28;20198;-59
2023/11/02 02:15:04;;;;;;;0.00;0.00;;;23.20;53.00;;;;;;4973804;28;20206;-58
2023/11/02 02:17:45;;;;;;;0.00;0.00;;;23.30;53.10;;;;;;4973423;28;20201;-59
2023/11/02 02:20:19;;;;;;;0.10;0.10;;;23.30;53.10;;;;;;4971949;28;20344;-57
2023/11/02 02:22:57;;;;;;;0.05;0.05;;;23.30;53.10;;;;;;4973128;28;20194;-57
2023/11/02 02:25:43;;;;;;;0.00;0.00;;;23.30;53.50;;;;;;4973204;28;20198;-58
2023/11/02 02:28:57;;;;;;;0.00;0.00;;;23.30;53.20;;;;;;4973334;28;20658;-57
2023/11/02 02:31:45;;;;;;;0.10;0.10;;;23.40;53.10;;;;;;4974197;28;20221;-58
2023/11/02 02:34:48;;;;;;;0.10;0.10;;;23.40;53.10;;;;;;4992115;28;20260;-58
2023/11/02 02:37:29;;;;;;;0.10;0.10;;;23.40;53.20;;;;;;4986865;28;20247;-58
2023/11/02 02:40:06;;;;;;;0.00;0.00;;;23.40;53.00;;;;;;4992740;28;20305;-57
2023/11/02 02:42:39;;;;;;;0.03;0.03;;;23.50;53.00;;;;;;4992827;28;20568;-58
2023/11/02 02:45:11;;;;;;;0.00;0.00;;;23.50;52.90;;;;;;4992860;28;20197;-58
2023/11/02 02:47:42;;;;;;;0.10;0.10;;;23.50;52.90;;;;;;4992067;28;20208;-59
2023/11/02 02:50:15;;;;;;;0.10;0.10;;;23.50;52.80;;;;;;4992425;28;20229;-58
2023/11/02 02:52:50;;;;;;;0.00;0.00;;;23.50;52.80;;;;;;4992466;28;20658;-59
2023/11/02 02:55:22;;;;;;;0.00;0.00;;;23.60;52.80;;;;;;5003874;28;20188;-58
2023/11/02 02:57:54;;;;;;;0.00;0.00;;;23.60;52.80;;;;;;5011872;28;20247;-59
2023/11/02 03:00:28;;;;;;;0.00;0.00;;;23.60;52.80;;;;;;5011775;28;20300;-58
2023/11/02 03:03:01;;;;;;;0.10;0.10;;;23.60;52.80;;;;;;4992758;28;20267;-58
2023/11/02 03:05:34;;;;;;;0.00;0.00;;;23.70;52.80;;;;;;4991962;28;20198;-58
2023/11/02 03:08:07;;;;;;;0.00;0.00;;;23.70;52.80;;;;;;4992000;28;20260;-59
2023/11/02 03:10:41;;;;;;;0.00;0.00;;;23.70;52.80;;;;;;4991796;28;20229;-58
2023/11/02 03:13:17;;;;;;;0.00;0.00;;;23.70;52.80;;;;;;4991971;28;20247;-58
2023/11/02 03:15:48;;;;;;;0.00;0.00;;;23.80;52.80;;;;;;4992346;28;20657;-58
2023/11/02 03:18:20;;;;;;;0.00;0.00;;;23.80;52.80;;;;;;4991628;28;20198;-59
2023/11/02 03:20:51;;;;;;;0.00;0.00;;;23.80;52.70;;;;;;4998453;28;20288;-59
2023/11/02 03:23:37;;;;;;;0.00;0.00;;;23.80;52.70;;;;;;4988787;28;20201;-58
2023/11/02 03:26:19;;;;;;;0.10;0.10;;;23.80;52.70;;;;;;4992183;28;20259;-58
2023/11/02 03:31:31;;;;;;;0.00;0.00;;;23.80;52.60;;;;;;5011568;28;20252;-54
2023/11/02 03:34:09;;;;;;;0.10;0.10;;;23.80;52.70;;;;;;5013863;28;20197;-54
2023/11/02 03:37:04;;;;;;;0.10;0.10;;;23.80;52.60;;;;;;5015194;28;20201;-53
2023/11/02 03:39:54;;;;;;;0.00;0.00;;;23.90;52.70;;;;;;5014618;28;20228;-55
2023/11/02 03:42:37;;;;;;;0.00;0.00;;;23.90;52.70;;;;;;5002923;28;20197;-55
2023/11/02 03:45:12;;;;;;;0.10;0.10;;;23.90;52.70;;;;;;5014258;28;20203;-52
2023/11/02 03:47:59;;;;;;;0.10;0.10;;;23.90;52.70;;;;;;5013933;28;20615;-52
2023/11/02 03:50:48;;;;;;;0.10;0.10;;;23.90;52.70;;;;;;5016513;28;20224;-50
2023/11/02 03:53:29;;;;;;;0.10;0.10;;;23.90;52.70;;;;;;5014906;28;20197;-55
2023/11/02 03:56:15;;;;;;;0.00;0.00;;;24.00;52.70;;;;;;5014494;28;20211;-54
2023/11/02 03:58:57;;;;;;;0.10;0.10;;;23.90;52.60;;;;;;5011477;28;20196;-54
2023/11/02 04:01:34;;;;;;;0.10;0.10;;;23.90;52.60;;;;;;5000640;28;20652;-54
2023/11/02 04:04:08;;;;;;;0.00;0.00;;;23.90;52.60;;;;;;5022017;28;20210;-54
2023/11/02 04:06:50;;;;;;;0.00;0.00;;;23.90;52.50;;;;;;5034084;28;20199;-55
2023/11/02 04:09:23;;;;;;;0.00;0.00;;;23.90;52.50;;;;;;4994836;28;20217;-56
2023/11/02 04:12:03;;;;;;;0.10;0.10;;;23.90;52.40;;;;;;4995648;28;20674;-55
2023/11/02 04:14:35;;;;;;;0.00;0.00;;;23.90;52.50;;;;;;5013400;28;20196;-56
2023/11/02 04:17:06;;;;;;;0.00;0.00;;;23.90;52.50;;;;;;5013237;28;20196;-55
2023/11/02 04:19:37;;;;;;;0.00;0.00;;;23.90;52.50;;;;;;5013942;28;20217;-55
2023/11/02 04:22:07;;;;;;;0.10;0.10;;;23.90;52.50;;;;;;5013811;28;20203;-54
2023/11/02 04:24:38;;;;;;;0.00;0.00;;;23.90;52.50;;;;;;5014112;28;20192;-55
2023/11/02 04:27:11;;;;;;;0.00;0.00;;;24.00;52.50;;;;;;5013643;28;20630;-54
2023/11/02 04:29:41;;;;;;;0.00;0.00;;;23.90;52.40;;;;;;5014253;28;20233;-54
2023/11/02 04:32:12;;;;;;;0.00;0.00;;;23.90;52.40;;;;;;5013823;28;20251;-54
2023/11/02 04:34:43;;;;;;;0.10;0.10;;;23.90;52.30;;;;;;5013774;28;20540;-53
2023/11/02 04:37:18;;;;;;;0.10;0.10;;;23.90;52.30;;;;;;5013798;28;20212;-54
2023/11/02 04:39:49;;;;;;;0.00;0.00;;;23.90;52.30;;;;;;5013476;28;20248;-54
2023/11/02 04:42:22;;;;;;;0.00;0.00;;;23.90;52.10;;;;;;5012151;28;20195;-56
2023/11/02 04:44:53;;;;;;;0.00;0.00;;;23.90;52.10;;;;;;5013857;28;20192;-52
2023/11/02 04:47:24;;;;;;;0.00;0.00;;;23.90;52.00;;;;;;5013071;28;20607;-54
2023/11/02 04:49:54;;;;;;;0.10;0.10;;;23.90;52.00;;;;;;5013737;28;20669;-52
2023/11/02 04:52:25;;;;;;;0.00;0.00;;;23.90;52.10;;;;;;5012839;28;20752;-55
2023/11/02 04:54:55;;;;;;;0.00;0.00;;;23.90;52.00;;;;;;5013514;28;20247;-54
2023/11/02 04:57:28;;;;;;;0.00;0.00;;;23.90;52.00;;;;;;5015730;28;20196;-53
2023/11/02 05:00:01;;;;;;;0.00;0.00;;;23.90;52.00;;;;;;5033439;28;20643;-55
2023/11/02 05:02:31;;;;;;;0.00;0.00;;;23.90;52.00;;;;;;5016985;28;20195;-53
2023/11/02 05:05:02;;;;;;;0.10;0.10;;;23.90;52.60;;;;;;5013704;28;20196;-51
2023/11/02 05:07:33;;;;;;;0.00;0.00;;;23.80;52.00;;;;;;5013464;28;20604;-53
2023/11/02 05:10:05;;;;;;;0.00;0.00;;;23.80;51.90;;;;;;5012507;28;20593;-54
2023/11/02 05:12:37;;;;;;;0.00;0.00;;;23.80;51.90;;;;;;5015507;28;20197;-52
2023/11/02 05:15:10;;;;;;;0.00;0.00;;;23.80;51.90;;;;;;5012552;28;20645;-53
2023/11/02 05:17:40;;;;;;;0.10;0.10;;;23.80;51.90;;;;;;5016970;28;20201;-54
2023/11/02 05:20:12;;;;;;;0.00;0.00;;;23.80;51.90;;;;;;5012549;28;20225;-55
2023/11/02 05:22:44;;;;;;;0.10;0.10;;;23.80;51.80;;;;;;5008099;28;20197;-55
2023/11/02 05:25:15;;;;;;;0.00;0.00;;;23.80;51.80;;;;;;5012983;28;20590;-55
2023/11/02 05:27:48;;;;;;;0.08;0.08;;;23.80;51.80;;;;;;5001435;28;20723;-55
2023/11/02 05:30:19;;;;;;;0.00;0.00;;;23.80;51.80;;;;;;4999924;28;20229;-53
2023/11/02 05:32:50;;;;;;;0.00;0.00;;;23.70;51.70;;;;;;5007988;28;20766;-54
2023/11/02 05:35:20;;;;;;;0.00;0.00;;;23.70;51.80;;;;;;5002260;28;20200;-55
2023/11/02 05:37:51;;;;;;;0.00;0.00;;;23.70;51.70;;;;;;5012675;28;20719;-56
2023/11/02 05:40:21;;;;;;;0.00;0.00;;;23.70;51.70;;;;;;5012332;28;20224;-55
2023/11/02 05:42:54;;;;;;;0.00;0.00;;;23.70;51.80;;;;;;5015375;28;20671;-53
2023/11/02 05:45:25;;;;;;;0.05;0.05;;;23.70;51.80;;;;;;5032477;28;20200;-53
2023/11/02 05:47:56;;;;;;;0.10;0.10;;;23.70;51.80;;;;;;5024374;28;20277;-54
2023/11/02 05:50:26;;;;;;;0.00;0.00;;;23.70;51.70;;;;;;5012107;28;20595;-52
2023/11/02 05:52:57;;;;;;;0.10;0.10;;;23.60;51.70;;;;;;5018142;28;20199;-54
2023/11/02 05:55:28;;;;;;;0.00;0.00;;;23.70;51.70;;;;;;5007247;28;20206;-51
2023/11/02 05:58:01;;;;;;;0.00;0.00;;;23.60;51.70;;;;;;5008122;28;20193;-53
2023/11/02 06:00:31;;;;;;;0.03;0.03;;;23.60;51.70;;;;;;5011810;28;20582;-53
2023/11/02 06:03:03;;;;;;;0.10;0.10;;;23.60;51.70;;;;;;5012472;28;20189;-54
2023/11/02 06:05:33;;;;;;;0.00;0.00;;;23.60;51.70;;;;;;5012118;28;20197;-52
2023/11/02 06:08:04;;;;;;;0.00;0.00;;;23.60;51.70;;;;;;5011857;28;20568;-53
2023/11/02 06:10:35;;;;;;;0.00;0.00;;;23.60;51.70;;;;;;5011727;28;20286;-52
2023/11/02 06:13:07;;;;;;;0.00;0.00;;;23.50;51.70;;;;;;5011396;28;20193;-53
2023/11/02 06:15:38;;;;;;;0.10;0.10;;;23.60;52.30;;;;;;5011786;28;20208;-53
2023/11/02 06:18:09;;;;;;;0.10;0.10;;;23.50;51.60;;;;;;5011866;28;20276;-55
2023/11/02 06:20:39;;;;;;;0.00;0.00;;;23.50;51.60;;;;;;5011686;28;20228;-55
2023/11/02 06:23:10;;;;;;;0.00;0.00;;;23.50;51.70;;;;;;5010193;28;20456;-55
2023/11/02 06:25:41;;;;;;;0.00;0.00;;;23.50;51.70;;;;;;5004992;28;20517;-55
2023/11/02 06:28:13;;;;;;;0.10;0.10;;;23.50;51.70;;;;;;5012300;28;20255;-54
2023/11/02 06:30:44;;;;;;;0.10;0.10;;;23.50;51.70;;;;;;5027838;23;20236;-53
2023/11/02 06:33:23;;;;;;;0.10;0.10;;;23.40;51.70;;;;;;4999506;28;20272;-51
2023/11/02 06:35:54;;;;;;;0.00;0.00;;;23.40;51.60;;;;;;4992387;28;20201;-55
2023/11/02 06:38:25;;;;;;;0.10;0.10;;;23.40;51.60;;;;;;4992533;28;20264;-58
2023/11/02 06:40:55;;;;;;;0.00;0.00;;;23.40;51.70;;;;;;4992773;28;20260;-51
2023/11/02 06:43:28;;;;;;;0.03;0.03;;;23.40;51.60;;;;;;4992309;28;20645;-52
2023/11/02 06:45:59;;;;;;;0.10;0.10;;;23.40;51.70;;;;;;4991759;28;20201;-55
2023/11/02 06:48:29;;;;;;;0.00;0.00;;;23.40;51.70;;;;;;4992602;28;20194;-60
2023/11/02 06:51:00;;;;;;;0.00;0.00;;;23.40;51.70;;;;;;4992200;28;20256;-59
2023/11/02 06:53:31;;;;;;;0.00;0.00;;;23.30;51.60;;;;;;4992365;28;20201;-55
2023/11/02 06:56:01;;;;;;;0.00;0.00;;;23.30;51.70;;;;;;4992277;28;20201;-54
2023/11/02 06:58:34;;;;;;;0.10;0.10;;;23.40;51.70;;;;;;5024595;28;20192;-56
2023/11/02 07:01:05;;;;;;;0.10;0.10;;;23.30;51.60;;;;;;5027111;28;20220;-53
2023/11/02 07:03:36;;;;;;;0.10;0.10;;;23.30;51.60;;;;;;4992084;28;20277;-53
2023/11/02 07:06:06;;;;;;;0.00;0.00;;;23.30;51.70;;;;;;4990480;28;20198;-57
2023/11/02 07:08:37;;;;;;;0.00;0.00;;;23.30;51.70;;;;;;4992378;28;20208;-53
2023/11/02 07:11:08;;;;;;;0.10;0.10;;;23.20;51.60;;;;;;5016189;28;20278;-53
2023/11/02 07:13:41;;;;;;;0.00;0.00;;;23.30;51.70;;;;;;5031004;28;20283;-55
2023/11/02 07:16:12;;;;;;;0.00;0.00;;;23.20;51.60;;;;;;5031436;28;20192;-59
2023/11/02 07:18:42;;;;;;;0.00;0.00;;;23.20;51.60;;;;;;5023598;28;20250;-46
2023/11/02 07:21:13;;;;;;;0.00;0.00;;;23.20;51.70;;;;;;5011213;28;20582;-53
2023/11/02 07:23:44;;;;;;;0.00;0.00;;;23.20;51.70;;;;;;4998904;28;20264;-55
2023/11/02 07:26:14;;;;;;;0.00;0.00;;;23.20;51.70;;;;;;4997773;28;20197;-53
2023/11/02 07:28:57;;;;;;;;;;;;;;;;;;;;;
2023/11/02 07:31:31;;;;;;;0.00;0.00;;;23.10;51.60;;;;;;5008837;28;20354;-52
2023/11/02 07:34:02;;;;;;;0.10;0.10;;;23.20;51.70;;;;;;5011248;28;20328;-56
2023/11/02 07:36:32;;;;;;;0.00;0.00;;;23.10;51.60;;;;;;5011690;28;20205;-54
2023/11/02 07:39:03;;;;;;;0.00;0.00;;;23.10;51.70;;;;;;5018826;28;20203;-53
2023/11/02 07:41:34;;;;;;;0.00;0.00;;;23.10;51.70;;;;;;5030880;28;20203;-54
2023/11/02 07:44:07;;;;;;;0.03;0.03;;;23.10;51.60;;;;;;5017593;28;20208;-53
2023/11/02 07:46:38;;;;;;;0.00;0.00;;;23.10;51.70;;;;;;5008776;28;20197;-51
2023/11/02 07:49:08;;;;;;;0.00;0.00;;;23.10;51.60;;;;;;5010684;28;20539;-55
2023/11/02 07:51:39;;;;;;;0.00;0.00;;;23.10;51.60;;;;;;5011115;28;20696;-56
2023/11/02 07:54:10;;;;;;;0.00;0.00;;;23.10;51.60;;;;;;4991471;28;20201;-52
2023/11/02 07:56:41;;;;;;;0.05;0.05;;;23.00;51.50;;;;;;5001242;28;20205;-54
2023/11/02 07:59:14;;;;;;;0.00;0.00;;;23.00;51.50;;;;;;5011113;28;20211;-55
2023/11/02 08:01:44;;;;;;;0.00;0.00;;;23.00;51.50;;;;;;5011202;28;20207;-51
2023/11/02 08:04:15;;;;;;;0.00;0.00;;;23.00;51.60;;;;;;5011175;28;20204;-51
2023/11/02 08:06:46;;;;;;;0.00;0.00;;;23.00;51.60;;;;;;5010839;28;20196;-55
2023/11/02 08:09:17;;;;;;;0.10;0.10;;;22.90;51.50;;;;;;5010759;28;20228;-53
2023/11/02 08:11:47;;;;;;;0.00;0.00;;;22.90;51.50;;;;;;5010694;28;20322;-56
2023/11/02 08:14:20;;;;;;;0.00;0.00;;;22.90;51.50;;;;;;5010125;28;20196;-54
2023/11/02 08:16:51;;;;;;;0.00;0.00;;;22.90;51.60;;;;;;5010855;28;20695;-52
2023/11/02 08:19:22;;;;;;;0.00;0.00;;;22.90;51.60;;;;;;5013349;28;20305;-54
2023/11/02 08:21:52;;;;;;;0.00;0.00;;;22.90;51.60;;;;;;5014122;28;20197;-54
2023/11/02 08:24:23;;;;;;;0.00;0.00;;;22.90;51.60;;;;;;5001404;28;20292;-52
2023/11/02 08:26:54;;;;;;;0.00;0.00;;;22.90;51.60;;;;;;5013985;28;20224;-51
2023/11/02 08:29:27;;;;;;;0.10;0.10;;;22.80;51.50;;;;;;5029827;23;20188;-58
2023/11/02 08:31:57;;;;;;;0.10;0.10;;;22.80;51.50;;;;;;5014685;28;20255;-53
2023/11/02 08:34:28;;;;;;;0.10;0.10;;;22.80;51.50;;;;;;5014224;28;20251;-49
2023/11/02 08:36:59;;;;;;;0.00;0.00;;;22.80;51.60;;;;;;5014390;28;20204;-55
2023/11/02 08:39:29;;;;;;;0.00;0.00;;;22.80;51.60;;;;;;5011026;28;20278;-58
2023/11/02 08:42:00;;;;;;;0.00;0.00;;;22.80;51.60;;;;;;5011705;28;20207;-52
2023/11/02 08:44:32;;;;;;;0.00;0.00;;;22.70;51.60;;;;;;5014143;28;20244;-50
2023/11/02 08:47:03;;;;;;;0.10;0.10;;;22.70;51.60;;;;;;5011349;28;20267;-56
2023/11/02 08:49:35;;;;;;;0.00;0.00;;;22.70;51.60;;;;;;5011173;28;20220;-57
2023/11/02 08:52:07;;;;;;;0.00;0.00;;;22.70;51.60;;;;;;5008423;28;20708;-57
2023/11/02 08:54:37;;;;;;;0.00;0.00;;;22.60;51.60;;;;;;5032219;28;20562;-60
2023/11/02 08:57:08;;;;;;;0.00;0.00;;;22.70;51.70;;;;;;5019168;28;20566;-59
2023/11/02 08:59:41;;;;;;;0.00;0.00;;;22.60;51.60;;;;;;5013878;28;20582;-61
2023/11/02 09:02:12;;;;;;;0.00;0.00;;;22.60;51.70;;;;;;5013343;28;20677;-60
2023/11/02 09:04:42;;;;;;;0.00;0.00;;;22.60;51.70;;;;;;5013761;28;20207;-58
2023/11/02 09:07:13;;;;;;;0.00;0.00;;;22.60;51.70;;;;;;5013715;28;20279;-60
2023/11/02 09:09:44;;;;;;;0.00;0.00;;;22.60;51.70;;;;;;5001270;28;20213;-60
2023/11/02 09:12:14;;;;;;;0.00;0.00;;;22.60;51.70;;;;;;4993313;28;20229;-59
2023/11/02 09:14:47;;;;;;;0.10;0.10;;;22.50;51.70;;;;;;5011490;28;20193;-58
2023/11/02 09:17:17;;;;;;;0.00;0.00;;;22.50;51.70;;;;;;5012224;28;20711;-59
2023/11/02 09:19:48;;;;;;;0.00;0.00;;;22.50;51.70;;;;;;5030442;28;20220;-60
2023/11/02 09:22:18;;;;;;;0.00;0.00;;;22.50;51.70;;;;;;5031705;28;20188;-60
2023/11/02 09:24:49;;;;;;;0.00;0.00;;;22.50;51.70;;;;;;5013749;28;20283;-60
2023/11/02 09:27:20;;;;;;;0.00;0.00;;;22.50;51.70;;;;;;5013622;28;20201;-53
2023/11/02 09:29:52;;;;;;;0.00;0.00;;;22.50;51.70;;;;;;5012978;28;20225;-59
2023/11/02 09:32:23;;;;;;;0.10;0.10;;;22.40;51.70;;;;;;5012411;28;20232;-59
2023/11/02 09:34:55;;;;;;;0.10;0.10;;;22.40;51.70;;;;;;5013182;28;20193;-58
2023/11/02 09:37:25;;;;;;;0.10;0.10;;;22.40;51.70;;;;;;5012924;28;20204;-54
2023/11/02 09:39:56;;;;;;;0.10;0.10;;;22.40;51.70;;;;;;5013009;28;20223;-60
2023/11/02 09:42:28;;;;;;;0.03;0.03;;;22.40;51.70;;;;;;5014206;28;20197;-52
2023/11/02 09:45:01;;;;;;;0.00;0.00;;;22.40;51.70;;;;;;5011707;28;20276;-56
2023/11/02 09:47:32;;;;;;;0.00;0.00;;;22.40;51.80;;;;;;4993174;28;20197;-54
2023/11/02 09:50:03;;;;;;;0.03;0.03;;;22.40;51.80;;;;;;5011686;28;20247;-60
2023/11/02 09:52:34;;;;;;;0.10;0.10;;;22.40;51.80;;;;;;5011752;28;20642;-60
2023/11/02 09:55:05;;;;;;;0.10;0.10;;;22.30;51.70;;;;;;5012216;28;20247;-61
2023/11/02 09:57:36;;;;;;;0.08;0.08;;;22.30;51.70;;;;;;5012590;28;20201;-55
2023/11/02 10:00:11;;;;;;;0.05;0.05;;;22.30;51.70;;;;;;5011916;28;20713;-52
2023/11/02 10:02:41;;;;;;;0.00;0.00;;;22.30;51.70;;;;;;5013110;28;20200;-59
2023/11/02 10:05:12;;;;;;;0.00;0.00;;;22.30;51.70;;;;;;5011703;28;20196;-61
2023/11/02 10:07:43;;;;;;;0.10;0.10;;;22.20;52.30;;;;;;5012582;28;20676;-49
2023/11/02 10:10:16;;;;;;;0.10;0.10;;;22.30;51.70;;;;;;5011613;28;20263;-60
2023/11/02 10:12:46;;;;;;;0.00;0.00;;;22.20;51.70;;;;;;5011908;28;20250;-57
2023/11/02 10:15:19;;;;;;;0.00;0.00;;;22.20;51.70;;;;;;5010232;28;20196;-61
2023/11/02 10:17:50;;;;;;;0.10;0.10;;;22.20;51.70;;;;;;5012302;28;20197;-59
2023/11/02 10:20:20;;;;;;;0.10;0.10;;;22.20;51.70;;;;;;5011636;28;20216;-61
2023/11/02 10:23:03;;;;;;;0.00;0.00;;;22.20;51.70;;;;;;4992754;28;20202;-60
2023/11/02 10:25:34;;;;;;;0.00;0.00;;;22.20;51.70;;;;;;4992807;28;20702;-61
2023/11/02 10:28:05;;;;;;;0.08;0.08;;;22.10;51.70;;;;;;5011544;28;20207;-61
2023/11/02 10:30:37;;;;;;;0.00;0.00;;;22.10;51.80;;;;;;5012639;28;20229;-61
2023/11/02 10:33:09;;;;;;;0.00;0.00;;;22.10;51.70;;;;;;5011589;28;20283;-60
2023/11/02 10:35:42;;;;;;;0.00;0.00;;;22.10;51.70;;;;;;5012118;28;20605;-61
2023/11/02 10:38:14;;;;;;;0.00;0.00;;;22.10;51.80;;;;;;5011242;28;20665;-61
2023/11/02 10:40:45;;;;;;;0.00;0.00;;;22.10;51.80;;;;;;5010571;28;20220;-61
2023/11/02 10:43:20;;;;;;;0.10;0.10;;;22.10;51.80;;;;;;5010750;28;20534;-60
2023/11/02 10:45:54;;;;;;;0.00;0.00;;;22.10;51.80;;;;;;5002207;28;20216;-61
2023/11/02 10:48:28;;;;;;;0.00;0.00;;;22.00;51.70;;;;;;5007903;28;20270;-60
2023/11/02 10:51:02;;;;;;;0.10;0.10;;;22.00;51.70;;;;;;5011220;28;20234;-60
2023/11/02 10:53:44;;;;;;;0.00;0.00;;;22.00;51.70;;;;;;5012474;28;20224;-60
2023/11/02 10:56:21;;;;;;;0.10;0.10;;;22.00;51.70;;;;;;5010677;28;20214;-51
2023/11/02 10:58:53;;;;;;;0.00;0.00;;;22.00;51.70;;;;;;5019634;28;20192;-55
2023/11/02 11:01:27;;;;;;;0.00;0.00;;;22.00;51.70;;;;;;5015104;28;20223;-54
2023/11/02 11:04:00;;;;;;;0.00;0.00;;;22.00;51.70;;;;;;5012416;28;20291;-53
2023/11/02 11:06:30;;;;;;;0.00;0.00;;;21.90;51.70;;;;;;5012066;28;20201;-58
2023/11/02 11:09:03;;;;;;;0.00;0.00;;;21.90;51.70;;;;;;5011875;28;20197;-55
2023/11/02 11:11:36;;;;;;;0.00;0.00;;;21.90;51.70;;;;;;5011617;28;20204;-55
2023/11/02 11:14:08;;;;;;;0.05;0.05;;;21.90;51.70;;;;;;5011897;28;20243;-52
2023/11/02 11:16:44;;;;;;;0.00;0.00;;;21.90;51.80;;;;;;5011424;28;20284;-56
2023/11/02 11:19:15;;;;;;;0.00;0.00;;;21.90;51.80;;;;;;5012024;28;20810;-52
2023/11/02 11:21:46;;;;;;;0.00;0.00;;;21.90;51.90;;;;;;5012008;28;20205;-55
2023/11/02 11:24:18;;;;;;;0.00;0.00;;;21.90;51.90;;;;;;5025914;28;20250;-53
2023/11/02 11:26:50;;;;;;;0.10;0.10;;;21.80;51.80;;;;;;5031020;28;20207;-59
2023/11/02 11:31:57;;;;;;;0.00;0.00;;;21.80;51.80;;;;;;5009286;28;20264;-51
2023/11/02 11:34:28;;;;;;;0.00;0.00;;;21.80;51.80;;;;;;5010951;28;20203;-51
2023/11/02 11:37:40;;;;;;;0.00;0.00;;;21.80;51.80;;;;;;5011213;28;20197;-52
2023/11/02 11:40:29;;;;;;;0.10;0.10;;;21.80;51.80;;;;;;5011349;28;20634;-48
2023/11/02 11:43:03;;;;;;;0.00;0.00;;;21.70;51.70;;;;;;5011475;28;20197;-52
2023/11/02 11:45:34;;;;;;;0.00;0.00;;;21.70;51.70;;;;;;5030137;28;20191;-49
2023/11/02 11:48:10;;;;;;;0.00;0.00;;;21.70;51.70;;;;;;5031154;28;20246;-51
2023/11/02 11:50:41;;;;;;;0.03;0.03;;;21.70;51.80;;;;;;5030916;28;20215;-51
2023/11/02 11:53:14;;;;;;;0.00;0.00;;;21.70;51.80;;;;;;5033899;28;20224;-54
2023/11/02 11:55:46;;;;;;;0.03;0.03;;;21.60;51.70;;;;;;5035241;28;20258;-53
2023/11/02 11:58:19;;;;;;;0.00;0.00;;;21.70;51.90;;;;;;5035043;28;20249;-50
2023/11/02 12:01:17;;;;;;;0.00;0.00;;;21.70;51.90;;;;;;5023814;28;20228;-54
2023/11/02 12:03:50;;;;;;;0.00;0.00;;;21.60;51.90;;;;;;5015157;28;20196;-52
2023/11/02 12:06:41;;;;;;;0.03;0.03;;;21.60;51.90;;;;;;5015219;28;20611;-52
2023/11/02 12:09:12;;;;;;;0.05;0.05;;;21.60;51.90;;;;;;5015412;28;20243;-51
2023/11/02 12:11:44;;;;;;;0.00;0.00;;;21.60;51.90;;;;;;5014995;28;20255;-51
2023/11/02 12:14:19;;;;;;;0.00;0.00;;;21.60;51.90;;;;;;5015170;28;20200;-54
2023/11/02 12:16:51;;;;;;;0.10;0.10;;;21.60;51.90;;;;;;5015191;28;20196;-54
2023/11/02 12:19:24;;;;;;;0.00;0.00;;;21.50;51.80;;;;;;5014946;28;20642;-53
2023/11/02 12:22:00;;;;;;;0.00;0.00;;;21.60;51.90;;;;;;5015091;28;20207;-53
2023/11/02 12:24:31;;;;;;;0.00;0.00;;;21.60;51.90;;;;;;5015005;28;20201;-54
2023/11/02 12:27:19;;;;;;;0.00;0.00;;;21.50;51.80;;;;;;5014634;28;20366;-52
2023/11/02 12:29:59;;;;;;;0.00;0.00;;;21.50;51.80;;;;;;5046452;23;20225;-51
2023/11/02 12:32:30;;;;;;;0.10;0.10;;;21.50;51.80;;;;;;4995198;28;20760;-57
2023/11/02 12:35:13;;;;;;;0.03;0.03;;;21.50;51.80;;;;;;4995350;28;20197;-58
2023/11/02 12:37:44;;;;;;;0.10;0.10;;;21.50;51.80;;;;;;4995094;28;20267;-55
2023/11/02 12:40:15;;;;;;;0.00;0.00;;;21.50;51.80;;;;;;4995098;28;20568;-49
2023/11/02 12:42:45;;;;;;;0.00;0.00;;;21.50;51.90;;;;;;4994438;28;20248;-49
2023/11/02 12:45:16;;;;;;;0.10;0.10;;;21.40;51.90;;;;;;4995180;28;20271;-55
2023/11/02 12:47:46;;;;;;;0.00;0.00;;;21.50;51.90;;;;;;4994873;28;20197;-48
2023/11/02 12:50:32;;;;;;;0.10;0.10;;;21.40;51.90;;;;;;4994755;28;20563;-55
2023/11/02 12:53:03;;;;;;;0.00;0.00;;;21.40;52.00;;;;;;4994791;28;20221;-54
2023/11/02 12:55:51;;;;;;;0.10;0.10;;;21.40;51.90;;;;;;4994615;28;20551;-51
2023/11/02 12:58:20;;;;;;;0.00;0.00;;;21.40;51.90;;;;;;4992412;28;20193;-57
2023/11/02 13:01:00;;;;;;;0.10;0.10;;;21.40;51.90;;;;;;4994788;28;20729;-55
2023/11/02 13:03:32;;;;;;;0.00;0.00;;;21.40;51.90;;;;;;4993948;28;20721;-57
2023/11/02 13:06:10;;;;;;;0.00;0.00;;;21.40;51.90;;;;;;4994892;28;20229;-56
2023/11/02 13:08:41;;;;;;;0.10;0.10;;;21.40;51.90;;;;;;4994537;28;20233;-56
2023/11/02 13:11:11;;;;;;;0.10;0.10;;;21.40;51.90;;;;;;4994487;28;20291;-56
2023/11/02 13:13:42;;;;;;;0.00;0.00;;;21.40;51.90;;;;;;4994199;28;20276;-52
2023/11/02 13:16:14;;;;;;;0.00;0.00;;;21.30;51.80;;;;;;4994064;28;20201;-53
2023/11/02 13:18:51;;;;;;;0.10;0.10;;;21.30;51.80;;;;;;4992133;28;20198;-54
2023/11/02 13:21:24;;;;;;;0.03;0.03;;;21.30;51.90;;;;;;4961229;28;20217;-53
2023/11/02 13:23:55;;;;;;;0.10;0.10;;;21.30;51.80;;;;;;4975084;28;20202;-58
2023/11/02 13:26:26;;;;;;;0.10;0.10;;;21.30;51.90;;;;;;4973910;28;20194;-51
2023/11/02 13:28:56;;;;;;;0.00;0.00;;;21.30;51.90;;;;;;4974022;28;20281;-57
2023/11/02 13:31:27;;;;;;;0.00;0.00;;;21.30;52.00;;;;;;4990490;28;20300;-57